createdAt,value
2023-05-22T00:01:38.798Z,13.60
2023-05-22T00:04:23.577Z,10.95
2023-05-22T00:07:08.528Z,11.55
2023-05-22T00:09:53.689Z,12.18
2023-05-22T00:12:38.728Z,11.50
2023-05-22T00:15:23.534Z,13.32
2023-05-22T00:18:08.588Z,11.82
2023-05-22T00:20:53.971Z,11.50
2023-05-22T00:23:38.714Z,12.73
2023-05-22T00:26:23.754Z,12.60
2023-05-22T00:29:08.871Z,12.02
2023-05-22T00:31:53.681Z,12.05
2023-05-22T00:34:39.043Z,12.25
2023-05-22T00:37:24.846Z,11.88
2023-05-22T00:40:10.400Z,13.40
2023-05-22T00:42:55.207Z,11.93
2023-05-22T00:45:40.216Z,13.23
2023-05-22T00:48:25.376Z,13.30
2023-05-22T00:51:12.693Z,12.80
2023-05-22T00:53:57.860Z,11.88
2023-05-22T00:56:43.540Z,15.88
2023-05-22T00:59:28.666Z,12.85
2023-05-22T01:02:15.809Z,16.38
2023-05-22T01:05:03.664Z,12.18
2023-05-22T01:07:48.536Z,13.32
2023-05-22T01:10:36.057Z,14.65
2023-05-22T01:14:14.152Z,12.77
2023-05-22T01:17:25.335Z,11.60
2023-05-22T01:20:36.065Z,13.18
2023-05-22T01:23:31.692Z,11.25
2023-05-22T01:29:40.816Z,12.07
2023-05-22T01:32:28.358Z,13.18
2023-05-22T01:35:17.317Z,13.63
2023-05-22T01:38:03.215Z,14.07
2023-05-22T01:40:49.408Z,13.10
2023-05-22T01:43:34.774Z,11.40
2023-05-22T01:46:20.177Z,11.52
2023-05-22T01:49:06.745Z,12.50
2023-05-22T01:52:09.379Z,11.68
2023-05-22T01:55:07.205Z,14.68
2023-05-22T01:57:58.679Z,14.23
2023-05-22T02:01:03.059Z,12.80
2023-05-22T02:03:55.615Z,12.60
2023-05-22T02:06:41.162Z,12.10
2023-05-22T02:09:30.486Z,14.50
2023-05-22T02:12:16.231Z,15.15
2023-05-22T02:15:01.280Z,13.80
2023-05-22T02:17:49.196Z,13.40
2023-05-22T02:20:34.477Z,12.57
2023-05-22T02:23:19.267Z,17.30
2023-05-22T02:26:04.985Z,14.50
2023-05-22T02:28:50.423Z,11.00
2023-05-22T02:31:35.412Z,16.65
2023-05-22T02:34:20.825Z,15.18
2023-05-22T02:37:05.566Z,14.63
2023-05-22T02:39:50.665Z,12.68
2023-05-22T02:42:35.944Z,16.50
2023-05-22T02:45:21.118Z,10.90
2023-05-22T02:48:06.030Z,10.57
2023-05-22T02:50:51.007Z,14.73
2023-05-22T02:53:39.469Z,12.15
2023-05-22T02:56:27.178Z,11.95
2023-05-22T02:59:13.235Z,10.70
2023-05-22T03:01:58.264Z,12.45
2023-05-22T03:04:43.313Z,14.65
2023-05-22T03:07:29.148Z,12.00
2023-05-22T03:10:13.751Z,9.75
2023-05-22T03:12:58.810Z,14.77
2023-05-22T03:15:43.592Z,11.57
2023-05-22T03:18:31.995Z,11.02
2023-05-22T03:21:16.659Z,11.80
2023-05-22T03:24:02.033Z,12.98
2023-05-22T03:26:47.046Z,11.35
2023-05-22T03:29:38.204Z,11.65
2023-05-22T03:32:23.321Z,10.23
2023-05-22T03:35:08.999Z,9.32
2023-05-22T03:37:54.095Z,11.95
2023-05-22T03:40:39.415Z,12.82
2023-05-22T03:43:24.627Z,11.15
2023-05-22T03:46:13.102Z,13.68
2023-05-22T03:48:58.234Z,13.38
2023-05-22T03:51:42.990Z,10.73
2023-05-22T03:54:27.997Z,12.35
2023-05-22T03:57:14.368Z,12.30
2023-05-22T04:00:05.966Z,12.45
2023-05-22T04:02:59.297Z,10.90
2023-05-22T04:05:44.836Z,10.40
2023-05-22T04:08:30.238Z,9.32
2023-05-22T04:11:15.404Z,10.85
2023-05-22T04:14:03.350Z,12.10
2023-05-22T04:16:50.360Z,10.98
2023-05-22T04:19:35.674Z,11.25
2023-05-22T04:22:22.058Z,12.13
2023-05-22T04:25:07.032Z,12.68
2023-05-22T04:27:52.339Z,8.27
2023-05-22T04:30:39.840Z,8.30
2023-05-22T04:33:24.736Z,8.15
2023-05-22T04:36:12.322Z,7.50
2023-05-22T04:38:57.820Z,7.35
2023-05-22T04:41:42.580Z,7.88
2023-05-22T04:44:29.835Z,7.15
2023-05-22T04:47:14.642Z,7.15
2023-05-22T04:50:02.086Z,7.57
2023-05-22T04:52:47.595Z,7.80
2023-05-22T04:55:36.690Z,6.15
2023-05-22T04:58:22.746Z,8.80
2023-05-22T05:01:08.852Z,8.70
2023-05-22T05:03:53.800Z,6.05
2023-05-22T05:06:38.761Z,6.05
2023-05-22T05:09:24.283Z,7.97
2023-05-22T05:12:09.652Z,7.25
2023-05-22T05:14:54.730Z,6.78
2023-05-22T05:17:40.455Z,9.73
2023-05-22T05:20:26.852Z,7.45
2023-05-22T05:23:12.778Z,5.32
2023-05-22T05:25:57.388Z,6.50
2023-05-22T05:28:42.339Z,5.80
2023-05-22T05:31:28.085Z,6.32
2023-05-22T05:34:29.458Z,5.03
2023-05-22T05:37:29.752Z,4.95
2023-05-22T05:40:17.753Z,4.75
2023-05-22T05:43:09.047Z,4.80
2023-05-22T05:45:54.489Z,8.45
2023-05-22T05:48:39.437Z,4.10
2023-05-22T05:51:24.403Z,5.55
2023-05-22T05:54:09.302Z,5.43
2023-05-22T05:56:54.673Z,4.95
2023-05-22T05:59:39.567Z,5.32
2023-05-22T06:02:40.530Z,4.28
2023-05-22T06:05:41.788Z,5.85
2023-05-22T06:08:42.623Z,3.97
2023-05-22T06:11:27.361Z,5.57
2023-05-22T06:14:13.464Z,6.18
2023-05-22T06:16:58.608Z,4.90
2023-05-22T06:19:44.628Z,4.68
2023-05-22T06:22:31.112Z,4.05
2023-05-22T06:25:26.698Z,5.82
2023-05-22T06:28:11.427Z,5.40
2023-05-22T06:30:57.641Z,3.58
2023-05-22T06:33:45.713Z,5.70
2023-05-22T06:36:31.144Z,4.43
2023-05-22T06:39:17.791Z,4.05
2023-05-22T06:42:27.652Z,4.50
2023-05-22T06:45:38.906Z,3.55
2023-05-22T06:48:53.677Z,4.13
2023-05-22T06:54:31.553Z,4.30
2023-05-22T06:57:16.988Z,3.47
2023-05-22T07:00:07.048Z,3.78
2023-05-22T07:03:11.198Z,2.97
2023-05-22T07:06:15.299Z,5.00
2023-05-22T07:09:00.932Z,5.50
2023-05-22T07:11:46.443Z,2.58
2023-05-22T07:14:33.689Z,2.63
2023-05-22T07:17:19.782Z,3.08
2023-05-22T07:20:06.367Z,4.63
2023-05-22T07:22:53.671Z,4.07
2023-05-22T07:25:38.903Z,2.78
2023-05-22T07:28:24.081Z,4.30
2023-05-22T07:31:16.984Z,4.03
2023-05-22T07:34:03.829Z,2.95
2023-05-22T07:36:49.675Z,4.20
2023-05-22T07:39:34.841Z,4.95
2023-05-22T07:42:21.068Z,3.67
2023-05-22T07:45:10.967Z,3.20
2023-05-22T07:47:58.363Z,4.80
2023-05-22T07:50:44.864Z,3.83
2023-05-22T07:53:29.805Z,6.00
2023-05-22T07:56:17.410Z,4.18
2023-05-22T07:59:03.491Z,6.03
2023-05-22T08:01:48.562Z,5.15
2023-05-22T08:04:34.838Z,3.20
2023-05-22T08:07:19.511Z,4.80
2023-05-22T08:10:12.800Z,5.70
2023-05-22T08:13:01.999Z,4.57
2023-05-22T08:15:46.913Z,4.60
2023-05-22T08:18:31.972Z,6.13
2023-05-22T08:21:17.396Z,5.07
2023-05-22T08:24:02.456Z,5.43
2023-05-22T08:26:47.461Z,6.53
2023-05-22T08:29:32.480Z,5.13
2023-05-22T08:32:17.951Z,5.25
2023-05-22T08:35:03.427Z,7.45
2023-05-22T08:37:47.968Z,6.15
2023-05-22T08:40:37.668Z,5.75
2023-05-22T08:43:23.439Z,5.43
2023-05-22T08:46:09.408Z,7.13
2023-05-22T08:48:56.832Z,7.72
2023-05-22T08:51:48.175Z,6.20
2023-05-22T08:54:36.279Z,8.95
2023-05-22T08:57:21.435Z,7.55
2023-05-22T09:00:07.301Z,8.70
2023-05-22T09:02:52.690Z,9.65
2023-05-22T09:05:38.949Z,7.43
2023-05-22T09:08:24.206Z,10.27
2023-05-22T09:11:10.567Z,8.63
2023-05-22T09:14:11.183Z,9.15
2023-05-22T09:16:56.235Z,10.15
2023-05-22T09:19:45.425Z,11.98
2023-05-22T09:22:37.781Z,11.27
2023-05-22T09:25:22.972Z,41.88
2023-05-22T09:28:08.057Z,10.07
2023-05-22T09:30:54.901Z,10.27
2023-05-22T09:33:43.886Z,12.15
2023-05-22T09:36:33.131Z,10.30
2023-05-22T09:39:18.009Z,9.82
2023-05-22T09:42:04.658Z,7.97
2023-05-22T09:44:51.053Z,9.18
2023-05-22T09:47:36.400Z,11.60
2023-05-22T09:50:21.384Z,9.80
2023-05-22T09:53:08.301Z,12.23
2023-05-22T09:55:55.901Z,10.85
2023-05-22T09:58:43.044Z,11.45
2023-05-22T10:01:28.387Z,9.35
2023-05-22T10:04:17.719Z,9.68
2023-05-22T10:07:03.390Z,8.65
2023-05-22T10:09:54.335Z,8.20
2023-05-22T10:12:42.827Z,7.47
2023-05-22T10:15:28.045Z,8.70
2023-05-22T10:18:15.640Z,9.82
2023-05-22T10:21:02.322Z,7.38
2023-05-22T10:23:48.885Z,8.30
2023-05-22T10:26:34.099Z,6.10
2023-05-22T10:29:23.916Z,5.75
2023-05-22T10:32:25.692Z,7.18
2023-05-22T10:35:47.332Z,6.63
2023-05-22T10:38:59.002Z,6.22
2023-05-22T10:41:44.294Z,7.35
2023-05-22T10:44:29.339Z,7.32
2023-05-22T10:47:14.629Z,6.50
2023-05-22T10:50:10.972Z,10.18
2023-05-22T10:53:25.004Z,7.35
2023-05-22T10:56:12.813Z,6.45
2023-05-22T10:59:08.011Z,10.88
2023-05-22T11:02:00.532Z,5.63
2023-05-22T11:04:46.709Z,9.18
2023-05-22T11:07:40.907Z,7.90
2023-05-22T11:10:27.035Z,5.80
2023-05-22T11:13:12.191Z,5.45
2023-05-22T11:15:57.873Z,4.47
2023-05-22T11:18:45.114Z,6.20
2023-05-22T11:21:30.762Z,5.15
2023-05-22T11:24:17.589Z,7.15
2023-05-22T11:27:06.921Z,5.65
2023-05-22T11:29:53.154Z,5.00
2023-05-22T11:32:39.648Z,6.32
2023-05-22T11:35:24.845Z,5.53
2023-05-22T11:38:09.945Z,4.47
2023-05-22T11:40:55.168Z,5.70
2023-05-22T11:43:42.736Z,5.38
2023-05-22T11:46:29.761Z,4.65
2023-05-22T11:49:16.641Z,5.65
2023-05-22T11:52:02.192Z,3.97
2023-05-22T11:54:47.909Z,4.68
2023-05-22T11:57:34.244Z,4.90
2023-05-22T12:00:19.663Z,5.40
2023-05-22T12:03:06.032Z,4.40
2023-05-22T12:05:51.257Z,6.10
2023-05-22T12:08:36.955Z,7.50
2023-05-22T12:11:28.918Z,7.95
2023-05-22T12:14:14.571Z,6.78
2023-05-22T12:17:01.145Z,5.65
2023-05-22T12:19:47.509Z,6.30
2023-05-22T12:22:32.592Z,8.40
2023-05-22T12:25:17.728Z,5.50
2023-05-22T12:28:02.651Z,6.70
2023-05-22T12:30:53.045Z,5.65
2023-05-22T12:33:39.870Z,5.65
2023-05-22T12:36:41.860Z,4.38
2023-05-22T12:39:29.401Z,6.07
2023-05-22T12:42:14.223Z,7.00
2023-05-22T12:44:59.988Z,6.72
2023-05-22T12:47:46.882Z,4.90
2023-05-22T12:50:31.810Z,6.82
2023-05-22T12:53:16.762Z,7.20
2023-05-22T12:56:01.961Z,7.13
2023-05-22T12:58:46.736Z,7.18
2023-05-22T13:01:31.810Z,4.68
2023-05-22T13:04:17.291Z,5.25
2023-05-22T13:07:02.401Z,4.90
2023-05-22T13:09:47.451Z,6.00
2023-05-22T13:12:32.696Z,4.18
2023-05-22T13:15:18.022Z,4.53
2023-05-22T13:18:03.475Z,4.10
2023-05-22T13:20:48.471Z,5.13
2023-05-22T13:23:33.925Z,7.57
2023-05-22T13:26:18.948Z,4.78
2023-05-22T13:29:04.328Z,6.28
2023-05-22T13:31:48.709Z,5.28
2023-05-22T13:34:33.574Z,4.25
2023-05-22T13:37:18.880Z,4.28
2023-05-22T13:40:04.663Z,3.20
2023-05-22T13:42:51.643Z,3.63
2023-05-22T13:45:36.663Z,4.57
2023-05-22T13:48:21.720Z,5.72
2023-05-22T13:51:07.388Z,5.78
2023-05-22T13:53:52.032Z,4.55
2023-05-22T13:56:37.121Z,3.53
2023-05-22T13:59:22.124Z,4.95
2023-05-22T14:02:07.157Z,7.20
2023-05-22T14:04:52.689Z,4.90
2023-05-22T14:07:38.098Z,3.45
2023-05-22T14:10:23.344Z,4.13
2023-05-22T14:13:08.293Z,3.78
2023-05-22T14:15:53.189Z,4.40
2023-05-22T14:18:38.062Z,4.68
2023-05-22T14:21:23.229Z,3.97
2023-05-22T14:24:07.926Z,4.00
2023-05-22T14:26:57.322Z,4.28
2023-05-22T14:29:41.972Z,3.40
2023-05-22T14:32:27.021Z,6.95
2023-05-22T14:35:12.120Z,6.13
2023-05-22T14:37:57.251Z,5.70
2023-05-22T14:40:42.177Z,5.53
2023-05-22T14:43:27.011Z,4.05
2023-05-22T14:46:12.341Z,3.38
2023-05-22T14:48:57.628Z,4.35
2023-05-22T14:51:46.973Z,5.38
2023-05-22T14:54:32.870Z,4.88
2023-05-22T14:57:17.731Z,4.10
2023-05-22T15:00:06.187Z,4.40
2023-05-22T15:02:51.113Z,4.28
2023-05-22T15:05:35.871Z,4.93
2023-05-22T15:08:20.653Z,3.75
2023-05-22T15:11:05.322Z,4.20
2023-05-22T15:13:50.155Z,3.65
2023-05-22T15:16:34.958Z,4.63
2023-05-22T15:19:19.929Z,5.93
2023-05-22T15:22:15.889Z,4.55
2023-05-22T15:25:11.216Z,5.57
2023-05-22T15:27:56.574Z,3.78
2023-05-22T15:30:43.119Z,4.30
2023-05-22T15:33:28.029Z,4.20
2023-05-22T15:36:12.587Z,3.42
2023-05-22T15:38:57.512Z,3.38
2023-05-22T15:41:48.841Z,4.00
2023-05-22T15:44:39.612Z,4.82
2023-05-22T15:47:24.368Z,5.63
2023-05-22T15:50:09.324Z,4.00
2023-05-22T15:52:54.220Z,4.38
2023-05-22T15:55:42.887Z,4.25
2023-05-22T15:58:33.557Z,4.25
2023-05-22T16:01:18.487Z,5.85
2023-05-22T16:04:03.389Z,6.40
2023-05-22T16:06:48.621Z,4.85
2023-05-22T16:09:34.389Z,3.15
2023-05-22T16:12:19.378Z,4.70
2023-05-22T16:15:06.756Z,6.05
2023-05-22T16:17:53.925Z,3.42
2023-05-22T16:20:39.500Z,5.13
2023-05-22T16:23:24.356Z,3.22
2023-05-22T16:26:09.374Z,4.15
2023-05-22T16:28:54.659Z,5.85
2023-05-22T16:31:39.586Z,3.70
2023-05-22T16:34:24.675Z,4.22
2023-05-22T16:37:09.426Z,4.03
2023-05-22T16:39:54.637Z,3.63
2023-05-22T16:42:39.342Z,3.85
2023-05-22T16:45:24.621Z,4.22
2023-05-22T16:48:09.178Z,4.40
2023-05-22T16:50:54.238Z,4.22
2023-05-22T16:53:41.041Z,4.20
2023-05-22T16:56:26.178Z,6.00
2023-05-22T16:59:10.778Z,4.50
2023-05-22T17:01:57.123Z,3.78
2023-05-22T17:04:41.816Z,4.80
2023-05-22T17:07:26.905Z,5.47
2023-05-22T17:10:12.277Z,4.72
2023-05-22T17:12:57.632Z,4.15
2023-05-22T17:15:42.664Z,4.97
2023-05-22T17:18:27.653Z,4.72
2023-05-22T17:21:12.702Z,4.15
2023-05-22T17:23:57.961Z,3.92
2023-05-22T17:26:43.891Z,6.03
2023-05-22T17:29:29.407Z,5.60
2023-05-22T17:32:14.421Z,6.68
2023-05-22T17:35:01.150Z,4.60
2023-05-22T17:37:46.467Z,4.80
2023-05-22T17:43:19.218Z,5.70
2023-05-22T17:46:05.126Z,4.05
2023-05-22T17:48:50.492Z,4.47
2023-05-22T17:51:35.900Z,4.13
2023-05-22T17:54:20.851Z,5.30
2023-05-22T17:57:05.863Z,5.35
2023-05-22T17:59:50.767Z,8.07
2023-05-22T18:02:38.506Z,5.13
2023-05-22T18:05:23.397Z,5.90
2023-05-22T18:08:08.268Z,5.85
2023-05-22T18:10:55.102Z,6.22
2023-05-22T18:13:40.186Z,5.13
2023-05-22T18:16:25.181Z,8.73
2023-05-22T18:19:10.585Z,6.32
2023-05-22T18:21:55.978Z,5.72
2023-05-22T18:24:41.332Z,6.82
2023-05-22T18:27:25.800Z,8.68
2023-05-22T18:30:11.167Z,6.13
2023-05-22T18:32:56.301Z,5.78
2023-05-22T18:35:41.521Z,5.50
2023-05-22T18:38:26.847Z,6.70
2023-05-22T18:41:11.868Z,5.15
2023-05-22T18:43:57.201Z,4.80
2023-05-22T18:46:41.890Z,5.97
2023-05-22T18:49:27.208Z,5.45
2023-05-22T18:52:11.978Z,7.25
2023-05-22T18:54:56.907Z,6.43
2023-05-22T18:57:42.084Z,6.93
2023-05-22T19:00:27.181Z,6.20
2023-05-22T19:03:12.215Z,6.50
2023-05-22T19:05:56.922Z,7.22
2023-05-22T19:08:41.993Z,6.70
2023-05-22T19:11:27.151Z,8.27
2023-05-22T19:14:11.994Z,10.52
2023-05-22T19:16:59.633Z,6.70
2023-05-22T19:19:46.179Z,6.25
2023-05-22T19:22:31.344Z,8.38
2023-05-22T19:25:16.185Z,6.97
2023-05-22T19:28:00.852Z,8.13
2023-05-22T19:30:46.034Z,8.82
2023-05-22T19:33:30.840Z,8.77
2023-05-22T19:36:16.072Z,9.38
2023-05-22T19:39:01.075Z,8.30
2023-05-22T19:41:46.778Z,10.93
2023-05-22T19:44:31.839Z,8.82
2023-05-22T19:47:16.851Z,8.65
2023-05-22T19:50:03.379Z,7.00
2023-05-22T19:52:48.559Z,8.73
2023-05-22T19:55:34.926Z,10.75
2023-05-22T19:58:19.535Z,8.15
2023-05-22T20:01:04.468Z,7.80
2023-05-22T20:03:49.661Z,6.97
2023-05-22T20:06:34.683Z,8.63
2023-05-22T20:09:19.740Z,8.88
2023-05-22T20:12:05.995Z,7.32
2023-05-22T20:14:51.017Z,8.32
2023-05-22T20:17:40.989Z,9.50
2023-05-22T20:20:26.281Z,6.13
2023-05-22T20:23:11.081Z,8.05
2023-05-22T20:25:56.102Z,10.05
2023-05-22T20:28:40.906Z,8.55
2023-05-22T20:31:27.152Z,8.82
2023-05-22T20:34:11.993Z,8.43
2023-05-22T20:36:57.813Z,9.30
2023-05-22T20:39:43.216Z,7.78
2023-05-22T20:42:28.069Z,10.90
2023-05-22T20:45:14.859Z,8.63
2023-05-22T20:48:01.102Z,12.68
2023-05-22T20:50:47.580Z,11.13
2023-05-22T20:53:32.426Z,12.65
2023-05-22T20:56:17.386Z,8.70
2023-05-22T20:59:02.469Z,10.52
2023-05-22T21:01:47.425Z,11.20
2023-05-22T21:04:32.574Z,11.85
2023-05-22T21:07:17.673Z,11.73
2023-05-22T21:10:03.421Z,14.82
2023-05-22T21:12:48.628Z,10.43
2023-05-22T21:15:33.579Z,12.88
2023-05-22T21:18:19.271Z,10.90
2023-05-22T21:21:04.065Z,11.95
2023-05-22T21:23:50.229Z,11.30
2023-05-22T21:26:35.349Z,13.88
2023-05-22T21:29:20.668Z,12.35
2023-05-22T21:32:05.858Z,13.35
2023-05-22T21:34:50.855Z,12.13
2023-05-22T21:37:35.717Z,13.07
2023-05-22T21:40:20.803Z,12.68
2023-05-22T21:43:05.966Z,13.65
2023-05-22T21:45:50.484Z,16.95
2023-05-22T21:48:35.597Z,14.40
2023-05-22T21:51:20.654Z,15.45
2023-05-22T21:54:05.523Z,16.25
2023-05-22T21:56:50.704Z,13.05
2023-05-22T21:59:35.713Z,15.10
2023-05-22T22:02:20.556Z,15.02
2023-05-22T22:05:05.764Z,11.63
2023-05-22T22:07:50.603Z,13.18
2023-05-22T22:10:35.817Z,12.90
2023-05-22T22:13:20.917Z,15.88
2023-05-22T22:16:05.552Z,16.92
2023-05-22T22:18:50.695Z,13.73
2023-05-22T22:21:35.812Z,19.48
2023-05-22T22:24:20.990Z,15.63
2023-05-22T22:27:05.995Z,13.20
2023-05-22T22:29:50.925Z,13.98
2023-05-22T22:32:36.564Z,14.10
2023-05-22T22:35:21.509Z,18.08
2023-05-22T22:38:06.202Z,16.45
2023-05-22T22:40:51.257Z,14.70
2023-05-22T22:43:36.022Z,15.05
2023-05-22T22:46:21.447Z,14.85
2023-05-22T22:49:06.828Z,13.85
2023-05-22T22:51:51.845Z,15.80
2023-05-22T22:54:36.946Z,16.35
2023-05-22T22:57:21.790Z,14.48
2023-05-22T23:00:07.379Z,15.68
2023-05-22T23:02:51.963Z,13.90
2023-05-22T23:05:37.282Z,12.13
2023-05-22T23:08:22.046Z,14.23
2023-05-22T23:11:07.385Z,11.75
2023-05-22T23:13:54.434Z,12.52
2023-05-22T23:16:42.341Z,13.00
2023-05-22T23:19:27.605Z,11.20
2023-05-22T23:22:12.687Z,13.30
2023-05-22T23:24:57.571Z,12.20
2023-05-22T23:27:43.033Z,12.60
2023-05-22T23:30:27.857Z,12.25
2023-05-22T23:33:12.988Z,10.48
2023-05-22T23:35:57.916Z,9.10
2023-05-22T23:38:43.150Z,11.18
2023-05-22T23:41:28.410Z,11.20
2023-05-22T23:44:13.790Z,10.43
2023-05-22T23:46:58.679Z,11.00
2023-05-22T23:49:43.534Z,11.10
2023-05-22T23:52:28.486Z,9.13
2023-05-22T23:55:13.388Z,9.02
2023-05-22T23:57:58.473Z,9.45
